Time;durP1;ratioP1;P1;durP2;ratioP2;P2;SDS_P1;SDS_P2;PMS_P1;PMS_P2;Temp;Humidity;BMP_temperature;BMP_pressure;BME280_temperature;BME280_humidity;BME280_pressure;Samples;Min_cycle;Max_cycle;Signal;HPM_P1;HPM_P2
2022/05/31 00:01:52;;;;;;;15.05;7.15;;;;;;;;;;4931276;29;20115;-64
2022/05/31 00:04:18;;;;;;;15.73;7.72;;;;;;;;;;4931410;29;20028;-64
2022/05/31 00:06:45;;;;;;;15.70;7.53;;;;;;;;;;4931037;29;20020;-64
2022/05/31 00:09:11;;;;;;;18.75;7.22;;;;;;;;;;4930695;29;20031;-63
2022/05/31 00:11:38;;;;;;;14.80;7.25;;;;;;;;;;4931132;29;20027;-64
2022/05/31 00:14:05;;;;;;;14.73;7.63;;;;;;;;;;4932501;29;20028;-63
2022/05/31 00:16:31;;;;;;;14.38;7.43;;;;;;;;;;4933009;29;20031;-65
2022/05/31 00:18:57;;;;;;;17.05;7.85;;;;;;;;;;4998839;28;20059;-64
2022/05/31 00:21:28;;;;;;;14.90;7.05;;;;;;;;;;4999254;28;20038;-64
2022/05/31 00:23:54;;;;;;;13.85;7.05;;;;;;;;;;4932960;29;20036;-65
2022/05/31 00:26:20;;;;;;;17.35;7.13;;;;;;;;;;4932809;29;20111;-66
2022/05/31 00:28:46;;;;;;;16.13;8.45;;;;;;;;;;4932446;29;20032;-64
2022/05/31 00:31:12;;;;;;;14.30;7.30;;;;;;;;;;4932668;29;20107;-65
2022/05/31 00:33:38;;;;;;;14.55;7.40;;;;;;;;;;4932583;29;20492;-65
2022/05/31 00:36:05;;;;;;;16.38;7.45;;;;;;;;;;4960620;23;20403;-64
2022/05/31 00:38:31;;;;;;;22.33;8.82;;;;;;;;;;4952081;28;20031;-65
2022/05/31 00:41:23;;;;;;;14.98;7.40;;;;;;;;;;4952831;29;20117;-64
2022/05/31 00:43:43;;;;;;;15.55;7.72;;;;;;;;;;4952727;29;20062;-65
2022/05/31 00:46:09;;;;;;;17.25;8.20;;;;;;;;;;4973024;28;20038;-65
2022/05/31 00:48:37;;;;;;;21.65;10.70;;;;;;;;;;4952476;28;20042;-65
2022/05/31 00:51:07;;;;;;;18.00;8.55;;;;;;;;;;5018857;28;20024;-65
2022/05/31 00:53:36;;;;;;;16.23;7.85;;;;;;;;;;4952711;29;20058;-65
2022/05/31 00:56:03;;;;;;;16.15;7.80;;;;;;;;;;4952305;28;20027;-65
2022/05/31 00:58:37;;;;;;;15.13;7.57;;;;;;;;;;4952308;28;20122;-65
2022/05/31 01:01:11;;;;;;;15.38;7.88;;;;;;;;;;4952433;28;20035;-65
2022/05/31 01:03:38;;;;;;;18.45;7.82;;;;;;;;;;4952555;29;20487;-65
2022/05/31 01:06:04;;;;;;;17.85;8.85;;;;;;;;;;5018853;28;20376;-65
2022/05/31 01:08:30;;;;;;;16.52;8.48;;;;;;;;;;5018442;28;20038;-65
2022/05/31 01:10:56;;;;;;;17.20;8.30;;;;;;;;;;4952648;29;20387;-66
2022/05/31 01:13:23;;;;;;;16.15;8.23;;;;;;;;;;4952456;28;20454;-66
2022/05/31 01:15:50;;;;;;;16.33;8.40;;;;;;;;;;4952353;28;20034;-65
2022/05/31 01:18:16;;;;;;;17.40;8.88;;;;;;;;;;5018276;28;20157;-65
2022/05/31 01:20:42;;;;;;;16.83;8.05;;;;;;;;;;5018441;28;20046;-65
2022/05/31 01:23:15;;;;;;;16.73;8.55;;;;;;;;;;4952819;29;20102;-65
2022/05/31 01:25:52;;;;;;;17.52;8.95;;;;;;;;;;5018035;28;20114;-66
2022/05/31 01:28:42;;;;;;;15.80;8.10;;;;;;;;;;5018107;28;20126;-66
2022/05/31 01:31:27;;;;;;;16.40;7.85;;;;;;;;;;5017713;28;20027;-65
2022/05/31 01:33:59;;;;;;;17.10;8.55;;;;;;;;;;4951797;29;20498;-64
2022/05/31 01:36:34;;;;;;;15.57;8.63;;;;;;;;;;4951530;28;20573;-65
2022/05/31 01:39:05;;;;;;;17.80;8.43;;;;;;;;;;4951300;28;20028;-66
2022/05/31 01:41:43;;;;;;;16.17;8.30;;;;;;;;;;4951608;29;20066;-65
2022/05/31 01:44:12;;;;;;;16.15;8.65;;;;;;;;;;4951672;29;20475;-65
2022/05/31 01:46:38;;;;;;;15.43;8.20;;;;;;;;;;4951532;29;20038;-65
2022/05/31 01:49:06;;;;;;;15.63;8.73;;;;;;;;;;5017301;28;20034;-65
2022/05/31 01:51:32;;;;;;;17.48;8.43;;;;;;;;;;4952001;29;20019;-65
2022/05/31 01:53:58;;;;;;;18.15;8.60;;;;;;;;;;4952010;28;20078;-65
2022/05/31 01:56:25;;;;;;;15.75;8.57;;;;;;;;;;4952014;29;20031;-65
2022/05/31 01:58:52;;;;;;;16.38;8.45;;;;;;;;;;4951806;29;20027;-66
2022/05/31 02:01:18;;;;;;;19.07;8.70;;;;;;;;;;5017950;28;20043;-65
2022/05/31 02:03:45;;;;;;;17.80;9.40;;;;;;;;;;4951683;28;20030;-65
2022/05/31 02:06:26;;;;;;;18.63;8.45;;;;;;;;;;4951462;29;20032;-65
2022/05/31 02:08:52;;;;;;;16.17;8.32;;;;;;;;;;4950691;28;20032;-65
2022/05/31 02:11:18;;;;;;;19.55;7.90;;;;;;;;;;4951584;29;20031;-65
2022/05/31 02:13:45;;;;;;;15.52;8.40;;;;;;;;;;5017331;28;20165;-65
2022/05/31 02:16:11;;;;;;;16.42;8.68;;;;;;;;;;4951317;28;20026;-64
2022/05/31 02:21:22;;;;;;;16.80;8.70;;;;;;;;;;4951108;29;20074;-64
2022/05/31 02:23:48;;;;;;;16.73;8.60;;;;;;;;;;4951242;29;20062;-65
2022/05/31 02:26:14;;;;;;;18.83;9.50;;;;;;;;;;4951134;29;20077;-65
2022/05/31 02:28:40;;;;;;;16.77;9.02;;;;;;;;;;5016451;28;20027;-64
2022/05/31 02:31:05;;;;;;;18.73;9.77;;;;;;;;;;4951072;29;20364;-65
2022/05/31 02:33:31;;;;;;;19.00;8.98;;;;;;;;;;4951339;28;20024;-65
2022/05/31 02:35:57;;;;;;;16.52;8.75;;;;;;;;;;4950863;28;20126;-66
2022/05/31 02:38:24;;;;;;;18.38;9.48;;;;;;;;;;4950820;29;20104;-65
2022/05/31 02:40:50;;;;;;;16.50;9.00;;;;;;;;;;5016963;28;20035;-65
2022/05/31 02:43:16;;;;;;;16.52;9.35;;;;;;;;;;4950831;29;20034;-65
2022/05/31 02:45:42;;;;;;;19.20;10.00;;;;;;;;;;4950829;29;20027;-65
2022/05/31 02:48:09;;;;;;;17.70;9.57;;;;;;;;;;4951019;29;20019;-64
2022/05/31 02:50:38;;;;;;;18.27;10.00;;;;;;;;;;4951215;29;20097;-65
2022/05/31 02:53:04;;;;;;;17.45;9.20;;;;;;;;;;5016968;28;20015;-65
2022/05/31 02:55:30;;;;;;;17.10;9.45;;;;;;;;;;4950748;29;20023;-66
2022/05/31 02:57:56;;;;;;;16.45;9.07;;;;;;;;;;4950787;29;20442;-64
2022/05/31 03:00:22;;;;;;;18.50;9.77;;;;;;;;;;4950750;28;20053;-64
2022/05/31 03:02:48;;;;;;;18.33;10.35;;;;;;;;;;4951041;28;20038;-65
2022/05/31 03:05:14;;;;;;;19.67;10.15;;;;;;;;;;4950681;29;20443;-65
2022/05/31 03:07:40;;;;;;;18.42;10.48;;;;;;;;;;4950768;29;20035;-64
2022/05/31 03:10:06;;;;;;;16.05;9.30;;;;;;;;;;4950759;28;20031;-64
2022/05/31 03:12:33;;;;;;;18.95;10.45;;;;;;;;;;4950606;28;20027;-65
2022/05/31 03:15:01;;;;;;;17.92;10.18;;;;;;;;;;5016623;28;20372;-66
2022/05/31 03:17:31;;;;;;;18.02;10.68;;;;;;;;;;4950696;29;20297;-66
2022/05/31 03:20:09;;;;;;;22.65;10.50;;;;;;;;;;4951757;28;20030;-65
2022/05/31 03:22:38;;;;;;;17.80;9.70;;;;;;;;;;4953978;29;20023;-64
2022/05/31 03:25:07;;;;;;;18.48;10.45;;;;;;;;;;4953807;28;20085;-65
2022/05/31 03:27:33;;;;;;;20.17;10.60;;;;;;;;;;4953707;29;20395;-65
2022/05/31 03:30:00;;;;;;;18.05;9.73;;;;;;;;;;5020170;28;20067;-64
2022/05/31 03:32:27;;;;;;;17.63;10.10;;;;;;;;;;4953929;29;20077;-65
2022/05/31 03:34:53;;;;;;;18.42;11.05;;;;;;;;;;4953535;29;20042;-65
2022/05/31 03:37:19;;;;;;;18.27;10.00;;;;;;;;;;5019647;28;20560;-65
2022/05/31 03:39:45;;;;;;;17.17;10.07;;;;;;;;;;4953619;28;20475;-65
2022/05/31 03:42:11;;;;;;;18.20;9.73;;;;;;;;;;5019853;28;20061;-65
2022/05/31 03:44:37;;;;;;;19.50;9.50;;;;;;;;;;4953893;29;20034;-65
2022/05/31 03:47:04;;;;;;;18.17;10.98;;;;;;;;;;4953250;28;20039;-65
2022/05/31 03:49:30;;;;;;;21.15;9.90;;;;;;;;;;4953211;29;20031;-65
2022/05/31 03:51:56;;;;;;;18.98;9.90;;;;;;;;;;4953320;29;20024;-65
2022/05/31 03:54:23;;;;;;;18.52;10.07;;;;;;;;;;4953190;28;20032;-65
2022/05/31 03:56:49;;;;;;;27.88;11.07;;;;;;;;;;4953335;29;20023;-64
2022/05/31 03:59:15;;;;;;;19.10;10.82;;;;;;;;;;4953065;29;20034;-65
2022/05/31 04:01:41;;;;;;;21.88;10.73;;;;;;;;;;5019480;28;20027;-65
2022/05/31 04:04:08;;;;;;;18.40;10.52;;;;;;;;;;4953739;29;20103;-64
2022/05/31 04:06:35;;;;;;;19.58;10.77;;;;;;;;;;4953671;29;20033;-64
2022/05/31 04:09:01;;;;;;;19.40;10.93;;;;;;;;;;5018947;28;20035;-65
2022/05/31 04:11:27;;;;;;;22.52;12.00;;;;;;;;;;5019497;28;20024;-64
2022/05/31 04:13:54;;;;;;;19.10;10.90;;;;;;;;;;4953166;29;20019;-65
2022/05/31 04:16:21;;;;;;;22.50;11.85;;;;;;;;;;5019134;28;20023;-65
2022/05/31 04:18:47;;;;;;;19.55;10.70;;;;;;;;;;4952664;29;20026;-65
2022/05/31 04:21:18;;;;;;;18.95;11.07;;;;;;;;;;4952832;29;20027;-65
2022/05/31 04:24:08;;;;;;;18.95;11.15;;;;;;;;;;4953455;29;20031;-65
2022/05/31 04:26:39;;;;;;;18.88;10.70;;;;;;;;;;4952791;29;20047;-65
2022/05/31 04:29:05;;;;;;;20.00;10.82;;;;;;;;;;4952513;29;20384;-65
2022/05/31 04:31:31;;;;;;;19.13;11.25;;;;;;;;;;4952290;28;20073;-64
2022/05/31 04:33:57;;;;;;;20.23;10.70;;;;;;;;;;4952727;29;20020;-65
2022/05/31 04:36:23;;;;;;;19.08;10.40;;;;;;;;;;5019017;28;20042;-65
2022/05/31 04:38:49;;;;;;;18.85;10.60;;;;;;;;;;4952477;28;20028;-65
2022/05/31 04:41:33;;;;;;;18.42;10.68;;;;;;;;;;4952706;28;20034;-65
2022/05/31 04:44:00;;;;;;;19.45;10.88;;;;;;;;;;5018860;28;20108;-65
2022/05/31 04:46:28;;;;;;;17.95;9.65;;;;;;;;;;5018678;28;20055;-65
2022/05/31 04:48:55;;;;;;;19.80;11.10;;;;;;;;;;4952079;29;20034;-65
2022/05/31 04:51:22;;;;;;;17.60;10.35;;;;;;;;;;4952224;29;20097;-65
2022/05/31 04:53:48;;;;;;;19.35;10.90;;;;;;;;;;5018426;28;20127;-64
2022/05/31 04:56:19;;;;;;;18.80;10.18;;;;;;;;;;4952173;28;20035;-67
2022/05/31 04:58:49;;;;;;;17.75;9.93;;;;;;;;;;5018120;28;20109;-66
2022/05/31 05:01:15;;;;;;;17.65;10.52;;;;;;;;;;4952203;29;20037;-63
2022/05/31 05:03:43;;;;;;;21.15;10.68;;;;;;;;;;4952109;28;20023;-66
2022/05/31 05:06:10;;;;;;;17.75;10.18;;;;;;;;;;5017583;28;20494;-65
2022/05/31 05:08:37;;;;;;;19.20;10.57;;;;;;;;;;4951316;28;20122;-65
2022/05/31 05:11:04;;;;;;;21.45;11.23;;;;;;;;;;5018113;28;20096;-65
2022/05/31 05:13:31;;;;;;;18.20;9.80;;;;;;;;;;4949893;28;20039;-65
2022/05/31 05:15:59;;;;;;;17.23;9.93;;;;;;;;;;4937654;28;20035;-66
2022/05/31 05:18:25;;;;;;;19.10;10.48;;;;;;;;;;4932461;28;20023;-66
2022/05/31 05:20:51;;;;;;;20.92;11.52;;;;;;;;;;4998172;28;20035;-65
2022/05/31 05:23:17;;;;;;;16.80;10.02;;;;;;;;;;4932887;28;20020;-67
2022/05/31 05:25:50;;;;;;;20.33;10.75;;;;;;;;;;4932694;28;20024;-63
2022/05/31 05:31:01;;;;;;;20.30;10.68;;;;;;;;;;4932384;28;20038;-64
2022/05/31 05:33:28;;;;;;;19.10;10.80;;;;;;;;;;4997961;28;20114;-64
2022/05/31 05:35:54;;;;;;;20.10;11.13;;;;;;;;;;4998491;28;20039;-65
2022/05/31 05:38:20;;;;;;;21.50;10.82;;;;;;;;;;4932374;28;20373;-65
2022/05/31 05:40:46;;;;;;;19.50;10.25;;;;;;;;;;4931982;28;20032;-64
2022/05/31 05:43:12;;;;;;;18.10;9.90;;;;;;;;;;4996586;28;20082;-64
2022/05/31 05:45:38;;;;;;;18.05;11.20;;;;;;;;;;4931740;28;20024;-65
2022/05/31 05:48:05;;;;;;;19.30;10.25;;;;;;;;;;4931588;28;20020;-64
2022/05/31 05:50:31;;;;;;;18.95;10.27;;;;;;;;;;4997345;28;20032;-65
2022/05/31 05:52:59;;;;;;;18.95;10.90;;;;;;;;;;4997214;28;20032;-65
2022/05/31 05:55:25;;;;;;;20.38;10.77;;;;;;;;;;4931776;28;20047;-65
2022/05/31 05:57:51;;;;;;;19.10;10.63;;;;;;;;;;4931910;28;20039;-64
2022/05/31 06:00:18;;;;;;;18.95;9.90;;;;;;;;;;4931421;28;20032;-65
2022/05/31 06:02:46;;;;;;;17.17;9.80;;;;;;;;;;4931665;28;20476;-65
2022/05/31 06:05:12;;;;;;;;;;;;;;;;;;4932471;28;20475;-65
2022/05/31 06:07:40;;;;;;;18.88;10.63;;;;;;;;;;4996839;28;19910;-65
2022/05/31 06:10:18;;;;;;;17.80;10.23;;;;;;;;;;4931744;28;20028;-64
2022/05/31 06:12:48;;;;;;;17.92;11.07;;;;;;;;;;4931757;28;20035;-65
2022/05/31 06:15:20;;;;;;;19.10;10.65;;;;;;;;;;4932205;28;20020;-62
2022/05/31 06:17:49;;;;;;;19.30;10.90;;;;;;;;;;4932033;28;20503;-65
2022/05/31 06:20:16;;;;;;;17.45;10.30;;;;;;;;;;4931865;28;20032;-64
2022/05/31 06:22:42;;;;;;;20.55;10.90;;;;;;;;;;4931322;28;20034;-65
2022/05/31 06:25:09;;;;;;;22.55;10.93;;;;;;;;;;4931650;28;20422;-65
2022/05/31 06:27:35;;;;;;;19.38;10.50;;;;;;;;;;4997099;28;20435;-65
2022/05/31 06:30:01;;;;;;;17.45;10.43;;;;;;;;;;4996790;28;20122;-65
2022/05/31 06:32:27;;;;;;;19.50;10.80;;;;;;;;;;4997097;28;20020;-65
2022/05/31 06:34:53;;;;;;;19.75;10.18;;;;;;;;;;4931479;28;20024;-63
2022/05/31 06:37:19;;;;;;;19.92;10.57;;;;;;;;;;4964850;23;20454;-64
2022/05/31 06:39:46;;;;;;;17.75;10.13;;;;;;;;;;4949788;29;20127;-64
2022/05/31 06:42:12;;;;;;;18.15;10.70;;;;;;;;;;4932203;29;20407;-62
2022/05/31 06:44:39;;;;;;;19.15;12.20;;;;;;;;;;4949287;28;20066;-61
2022/05/31 06:47:05;;;;;;;23.85;11.63;;;;;;;;;;4949151;29;20027;-63
2022/05/31 06:49:32;;;;;;;20.00;11.30;;;;;;;;;;4948952;28;20460;-64
2022/05/31 06:57:36;;;;;;;19.27;10.75;;;;;;;;;;4952125;29;20035;-63
2022/05/31 07:00:04;;;;;;;18.25;11.02;;;;;;;;;;5019107;28;20439;-60
2022/05/31 07:02:30;;;;;;;19.63;10.88;;;;;;;;;;4952149;29;20081;-63
2022/05/31 07:04:56;;;;;;;19.10;11.43;;;;;;;;;;4952499;28;20070;-62
2022/05/31 07:07:22;;;;;;;20.55;11.10;;;;;;;;;;4952244;29;20438;-64
2022/05/31 07:09:48;;;;;;;19.27;11.45;;;;;;;;;;4952523;28;20182;-64
2022/05/31 07:12:14;;;;;;;19.63;11.30;;;;;;;;;;4952391;28;20073;-64
2022/05/31 07:14:40;;;;;;;20.17;11.57;;;;;;;;;;4952204;29;20039;-64
2022/05/31 07:17:06;;;;;;;18.38;9.98;;;;;;;;;;4952170;29;20030;-64
2022/05/31 07:19:32;;;;;;;19.35;11.63;;;;;;;;;;4952159;29;20609;-64
2022/05/31 07:21:59;;;;;;;22.15;10.57;;;;;;;;;;4952331;28;20082;-63
2022/05/31 07:24:25;;;;;;;18.35;10.40;;;;;;;;;;4952136;28;20367;-64
2022/05/31 07:26:51;;;;;;;18.88;11.10;;;;;;;;;;5018265;28;20032;-63
2022/05/31 07:29:17;;;;;;;17.63;10.35;;;;;;;;;;4951646;28;20035;-65
2022/05/31 07:31:44;;;;;;;17.35;10.48;;;;;;;;;;4951841;29;20023;-63
2022/05/31 07:34:11;;;;;;;19.10;11.02;;;;;;;;;;4952087;29;20102;-63
2022/05/31 07:36:38;;;;;;;17.52;10.27;;;;;;;;;;4951562;28;20043;-61
2022/05/31 07:39:04;;;;;;;21.05;10.90;;;;;;;;;;5018295;28;20034;-62
2022/05/31 07:41:32;;;;;;;18.98;10.93;;;;;;;;;;4951512;28;20055;-62
2022/05/31 07:43:58;;;;;;;16.58;10.23;;;;;;;;;;4951627;29;20019;-63
2022/05/31 07:46:24;;;;;;;20.17;10.10;;;;;;;;;;4951913;28;20470;-63
2022/05/31 07:48:50;;;;;;;20.77;11.90;;;;;;;;;;4951534;28;20074;-63
2022/05/31 07:51:17;;;;;;;18.40;10.38;;;;;;;;;;4951740;29;20062;-63
2022/05/31 07:53:43;;;;;;;18.50;9.90;;;;;;;;;;4952012;29;20424;-62
2022/05/31 07:56:09;;;;;;;18.20;10.55;;;;;;;;;;5018184;28;20110;-63
2022/05/31 07:58:36;;;;;;;19.90;9.73;;;;;;;;;;5018001;28;20023;-63
2022/05/31 08:01:04;;;;;;;19.42;10.23;;;;;;;;;;4951709;29;20069;-63
2022/05/31 08:03:30;;;;;;;19.93;11.60;;;;;;;;;;4952047;28;20049;-63
2022/05/31 08:05:56;;;;;;;20.55;11.40;;;;;;;;;;4950949;29;20072;-63
2022/05/31 08:08:22;;;;;;;20.85;11.40;;;;;;;;;;4951213;29;20027;-64
2022/05/31 08:10:49;;;;;;;18.90;11.32;;;;;;;;;;4951484;28;20549;-64
2022/05/31 08:13:15;;;;;;;18.23;11.35;;;;;;;;;;4951646;28;20490;-63
2022/05/31 08:15:41;;;;;;;19.02;11.35;;;;;;;;;;4951467;28;20467;-63
2022/05/31 08:18:07;;;;;;;18.25;11.55;;;;;;;;;;5017619;28;20026;-62
2022/05/31 08:20:33;;;;;;;17.60;11.80;;;;;;;;;;4951418;28;20034;-63
2022/05/31 08:23:02;;;;;;;17.52;11.15;;;;;;;;;;4951190;29;20023;-62
2022/05/31 08:25:28;;;;;;;17.70;11.02;;;;;;;;;;4951029;28;20031;-63
2022/05/31 08:27:54;;;;;;;18.63;11.02;;;;;;;;;;4951062;28;20118;-60
2022/05/31 08:30:20;;;;;;;17.20;10.77;;;;;;;;;;4947139;28;20036;-60
2022/05/31 08:32:46;;;;;;;19.02;10.77;;;;;;;;;;4942336;28;20367;-62
2022/05/31 08:35:12;;;;;;;17.23;10.77;;;;;;;;;;4943403;29;20024;-61
2022/05/31 08:37:38;;;;;;;17.80;10.88;;;;;;;;;;4931750;28;20478;-63
2022/05/31 08:40:04;;;;;;;19.23;11.00;;;;;;;;;;4944678;28;20032;-61
2022/05/31 08:42:33;;;;;;;20.92;12.85;;;;;;;;;;4951257;28;20061;-59
2022/05/31 08:44:59;;;;;;;;;;;;;;;;;;4951809;29;20058;-62
2022/05/31 08:47:31;;;;;;;19.27;10.70;;;;;;;;;;4947704;29;19913;-60
2022/05/31 08:52:47;;;;;;;24.15;11.52;;;;;;;;;;4932180;28;20051;-61
2022/05/31 08:58:22;;;;;;;18.25;11.45;;;;;;;;;;4896159;29;20397;-60
2022/05/31 09:00:50;;;;;;;18.33;11.70;;;;;;;;;;4931800;28;20449;-62
2022/05/31 09:03:16;;;;;;;17.92;11.02;;;;;;;;;;4931665;28;20020;-62
2022/05/31 09:06:01;;;;;;;24.15;12.20;;;;;;;;;;4944211;28;20111;-62
2022/05/31 09:08:27;;;;;;;17.50;10.80;;;;;;;;;;4950614;29;20122;-61
2022/05/31 09:11:01;;;;;;;21.35;11.50;;;;;;;;;;5017033;28;20519;-63
2022/05/31 09:13:30;;;;;;;23.20;11.20;;;;;;;;;;4950688;28;20501;-61
2022/05/31 09:15:58;;;;;;;19.63;11.00;;;;;;;;;;4950592;29;20031;-63
2022/05/31 09:18:24;;;;;;;;;;;;;;;;;;4950757;28;20027;-62
2022/05/31 09:20:53;;;;;;;17.40;11.68;;;;;;;;;;4950589;28;20320;-61
2022/05/31 09:23:33;;;;;;;18.85;11.50;;;;;;;;;;4950494;29;20103;-62
2022/05/31 09:26:05;;;;;;;20.58;12.15;;;;;;;;;;4950390;29;20118;-60
2022/05/31 09:28:36;;;;;;;20.27;11.60;;;;;;;;;;4950303;29;20035;-61
2022/05/31 09:31:08;;;;;;;18.83;11.45;;;;;;;;;;4950429;29;20034;-62
2022/05/31 09:33:39;;;;;;;17.05;11.07;;;;;;;;;;4936356;29;20055;-58
2022/05/31 09:36:11;;;;;;;20.83;10.82;;;;;;;;;;4930821;29;20040;-64
2022/05/31 09:38:46;;;;;;;18.60;11.38;;;;;;;;;;4930738;29;20031;-59
2022/05/31 09:41:19;;;;;;;21.00;11.55;;;;;;;;;;4931089;29;20051;-62
2022/05/31 09:44:04;;;;;;;21.60;11.52;;;;;;;;;;4931085;29;20024;-60
2022/05/31 09:46:41;;;;;;;19.08;11.65;;;;;;;;;;4937294;29;20368;-63
2022/05/31 09:49:19;;;;;;;20.88;11.50;;;;;;;;;;4933072;29;20035;-61
2022/05/31 09:51:45;;;;;;;21.15;11.55;;;;;;;;;;4931876;29;20028;-61
2022/05/31 09:57:06;;;;;;;18.45;11.75;;;;;;;;;;4932538;29;20074;-65
2022/05/31 09:59:33;;;;;;;18.65;12.00;;;;;;;;;;4932033;29;20085;-65
2022/05/31 10:02:17;;;;;;;18.73;11.55;;;;;;;;;;4999087;28;20038;-64
2022/05/31 10:04:43;;;;;;;16.50;11.15;;;;;;;;;;4933242;29;20043;-65
2022/05/31 10:07:10;;;;;;;16.20;10.85;;;;;;;;;;4947795;29;20035;-66
2022/05/31 10:09:36;;;;;;;16.33;10.70;;;;;;;;;;4952310;28;20027;-63
2022/05/31 10:12:12;;;;;;;17.90;10.95;;;;;;;;;;5019506;28;20032;-65
2022/05/31 10:14:41;;;;;;;21.58;11.73;;;;;;;;;;4952140;29;20087;-64
2022/05/31 10:17:07;;;;;;;;;;;;;;;;;;4952043;28;20034;-64
2022/05/31 10:19:33;;;;;;;17.00;11.30;;;;;;;;;;5017990;28;20293;-65
2022/05/31 10:22:15;;;;;;;20.05;11.30;;;;;;;;;;4952695;28;20023;-65
2022/05/31 10:24:41;;;;;;;19.40;11.15;;;;;;;;;;4951753;29;20459;-64
2022/05/31 10:27:11;;;;;;;17.30;11.25;;;;;;;;;;4951536;29;20053;-63
2022/05/31 10:29:49;;;;;;;17.55;10.75;;;;;;;;;;4951743;29;20127;-65
2022/05/31 10:32:34;;;;;;;17.65;11.02;;;13.90;94.10;;;;;;5019607;28;20019;-63
2022/05/31 10:35:19;;;;;;;20.77;11.48;;;18.50;99.90;;;;;;4998919;28;20038;-65
2022/05/31 10:37:59;;;;;;;18.55;11.93;;;19.00;99.90;;;;;;4932508;29;20031;-62
2022/05/31 10:40:33;;;;;;;21.08;11.75;;;19.10;99.90;;;;;;4938868;29;20098;-59
2022/05/31 10:43:19;;;;;;;17.08;10.70;;;18.80;99.90;;;;;;4938667;29;20031;-60
2022/05/31 10:45:45;;;;;;;18.50;11.02;;;;;;;;;;5004989;28;20039;-61
2022/05/31 10:48:11;;;;;;;17.88;11.43;;;;;;;;;;4939182;29;20028;-65
2022/05/31 10:51:00;;;;;;;18.70;11.20;;;;;;;;;;4936785;29;20031;-63
2022/05/31 10:53:34;;;;;;;20.95;12.30;;;;;;;;;;4936001;28;20088;-64
2022/05/31 10:56:06;;;;;;;18.15;12.18;;;;;;;;;;4936809;29;20492;-65
2022/05/31 10:58:31;;;;;;;18.83;12.40;;;;;;;;;;4936426;29;20080;-65
2022/05/31 11:00:57;;;;;;;16.98;11.48;;;;;;;;;;4935870;29;20396;-64
2022/05/31 11:03:26;;;;;;;18.70;11.48;;;;;;;;;;4936435;29;20452;-63
2022/05/31 11:05:52;;;;;;;16.95;11.25;;;;;;;;;;4936133;29;20024;-63
2022/05/31 11:11:30;;;;;;;21.85;12.20;;;;;;;;;;4932653;29;20047;-63
2022/05/31 11:14:11;;;;;;;20.50;12.02;;;;;;;;;;4930001;29;20046;-63
2022/05/31 11:16:37;;;;;;;23.02;12.07;;;;;;;;;;4995652;28;20429;-63
2022/05/31 11:19:14;;;;;;;18.33;12.40;;;;;;;;;;4929619;29;20119;-63
2022/05/31 11:21:58;;;;;;;24.42;13.23;;;;;;;;;;4929652;29;20051;-61
2022/05/31 11:24:30;;;;;;;17.55;12.25;;;;;;;;;;4929704;29;20073;-63
2022/05/31 11:26:56;;;;;;;19.60;13.13;;;;;;;;;;4929782;29;20042;-60
2022/05/31 11:29:28;;;;;;;19.42;13.20;;;;;;;;;;4929527;29;20036;-63
2022/05/31 11:31:54;;;;;;;21.77;13.18;;;;;;;;;;4929958;29;20024;-61
2022/05/31 11:34:31;;;;;;;20.02;12.65;;;;;;;;;;4944700;28;20053;-62
2022/05/31 11:37:03;;;;;;;19.17;12.90;;;;;;;;;;4948898;28;20165;-61
2022/05/31 11:39:44;;;;;;;18.40;12.40;;;;;;;;;;4948692;28;20089;-62
2022/05/31 11:42:29;;;;;;;18.85;12.57;;;;;;;;;;4951780;29;20027;-63
2022/05/31 11:44:57;;;;;;;17.88;12.57;;;;;;;;;;4952206;28;20034;-63
2022/05/31 11:47:36;;;;;;;18.40;12.20;;;;;;;;;;4951772;29;20088;-62
2022/05/31 11:50:05;;;;;;;20.73;12.07;;;;;;;;;;4951872;28;20028;-62
2022/05/31 11:52:31;;;;;;;16.80;11.98;;;;;;;;;;4952127;29;20084;-63
2022/05/31 11:58:10;;;;;;;19.33;11.85;;;;;;;;;;4951871;29;20088;-61
2022/05/31 12:00:42;;;;;;;17.88;12.00;;;;;;;;;;4961042;28;20115;-60
2022/05/31 12:03:13;;;;;;;18.10;12.38;;;;;;;;;;4952046;28;20019;-62
2022/05/31 12:05:46;;;;;;;20.85;12.00;;;;;;;;;;4951791;29;20031;-64
2022/05/31 12:08:15;;;;;;;18.15;12.05;;;;;;;;;;5020782;28;20073;-62
2022/05/31 12:10:53;;;;;;;16.23;11.43;;;;;;;;;;4952879;28;20102;-63
2022/05/31 12:13:20;;;;;;;17.13;11.55;;;;;;;;;;4950930;29;20027;-63
2022/05/31 12:15:47;;;;;;;17.30;11.50;;;;;;;;;;4951031;28;20173;-64
2022/05/31 12:18:20;;;;;;;17.38;11.98;;;;;;;;;;4951884;29;20028;-63
2022/05/31 12:20:52;;;;;;;17.27;11.88;;;;;;;;;;4951739;28;20031;-64
2022/05/31 12:23:32;;;;;;;16.63;12.07;;;;;;;;;;5017820;28;20023;-64
2022/05/31 12:25:58;;;;;;;18.90;12.20;;;;;;;;;;4951431;29;20046;-63
2022/05/31 12:28:30;;;;;;;18.30;12.45;;;;;;;;;;4944511;28;20024;-62
2022/05/31 12:31:01;;;;;;;17.90;12.10;;;;;;;;;;4951720;29;20035;-64
2022/05/31 12:33:38;;;;;;;17.77;12.90;;;;;;;;;;5017980;28;20054;-63
2022/05/31 12:36:04;;;;;;;17.92;12.43;;;;;;;;;;4969200;23;20047;-60
2022/05/31 12:38:50;;;;;;;18.83;12.27;;;;;;;;;;4951393;28;20093;-59
2022/05/31 12:41:31;;;;;;;16.63;12.15;;;;;;;;;;4951938;29;20043;-59
2022/05/31 12:43:59;;;;;;;16.73;12.10;;;;;;;;;;4952725;29;20438;-61
2022/05/31 12:46:32;;;;;;;17.23;11.23;;;;;;;;;;4952523;29;20460;-62
2022/05/31 12:49:04;;;;;;;17.35;11.20;;;;;;;;;;4951943;29;20035;-62
2022/05/31 12:51:31;;;;;;;16.17;11.82;;;;;;;;;;5018410;28;20059;-62
2022/05/31 12:53:59;;;;;;;16.25;11.65;;;;;;;;;;5018408;28;20503;-60
2022/05/31 12:56:36;;;;;;;17.63;11.00;;;;;;;;;;4952212;28;20369;-60
2022/05/31 12:59:03;;;;;;;15.80;11.70;;;;;;;;;;4952067;29;20042;-59
2022/05/31 13:01:29;;;;;;;16.10;11.52;;;;;;;;;;4952674;28;20395;-59
2022/05/31 13:03:57;;;;;;;16.23;11.10;;;;;;;;;;4951988;29;20023;-58
2022/05/31 13:06:38;;;;;;;16.15;10.70;;;;;;;;;;4951934;29;20051;-59
2022/05/31 13:09:31;;;;;;;16.45;11.40;;;;;;;;;;4951691;28;20063;-60
2022/05/31 13:20:36;;;;;;;17.38;11.95;;;;;;;;;;4951344;29;20070;-60
2022/05/31 13:23:08;;;;;;;16.35;11.45;;;;;;;;;;4951909;29;20031;-61
2022/05/31 13:25:45;;;;;;;17.65;11.75;;;;;;;;;;4951823;28;20411;-61
2022/05/31 13:28:41;;;;;;;15.85;11.48;;;;;;;;;;4950701;29;20042;-59
2022/05/31 13:31:14;;;;;;;16.05;11.55;;;;;;;;;;4955249;28;20046;-56
2022/05/31 13:33:41;;;;;;;15.68;11.63;;;;;;;;;;5017290;28;20102;-59
2022/05/31 13:36:15;;;;;;;15.77;11.85;;;;;;;;;;5017255;28;20050;-60
2022/05/31 13:38:43;;;;;;;15.88;11.40;;;;;;;;;;4951076;29;20039;-59
2022/05/31 13:41:10;;;;;;;16.98;11.15;;;;;;;;;;4951476;29;20479;-57
2022/05/31 13:43:39;;;;;;;16.00;11.07;;;;;;;;;;5017754;28;20527;-63
2022/05/31 13:46:15;;;;;;;22.70;11.65;;;;;;;;;;5017627;28;20031;-61
2022/05/31 13:48:42;;;;;;;15.95;11.10;;;;;;;;;;4950982;29;20053;-58
2022/05/31 13:51:10;;;;;;;17.50;11.43;;;;;;;;;;4951408;28;20037;-58
2022/05/31 13:53:36;;;;;;;;;;;;;;;;;;4952033;29;20032;-58
2022/05/31 13:56:02;;;;;;;15.68;11.15;;;;;;;;;;5017470;28;19920;-65
2022/05/31 13:58:31;;;;;;;16.63;11.38;;;;;;;;;;5017466;28;20034;-58
2022/05/31 14:00:57;;;;;;;15.82;10.68;;;;;;;;;;4605055;28;10000434;-61
2022/05/31 14:03:32;;;;;;;15.70;11.07;;;;;;;;;;4981901;28;20024;-61
2022/05/31 14:06:01;;;;;;;17.15;11.07;;;;;;;;;;4936651;29;20101;-60
2022/05/31 14:08:32;;;;;;;15.38;10.75;;;;;;;;;;4945208;29;20098;-61
2022/05/31 14:10:58;;;;;;;15.82;11.30;;;;;;;;;;4935636;28;20523;-61
2022/05/31 14:13:26;;;;;;;14.95;10.90;;;;;;;;;;4931748;28;20114;-59
2022/05/31 14:16:28;;;;;;;16.15;12.02;;;;;;;;;;4931926;28;20020;-61
2022/05/31 14:18:56;;;;;;;17.73;11.52;;;;;;;;;;4959811;28;20022;-62
2022/05/31 14:21:22;;;;;;;18.75;11.57;;;;;;;;;;4986137;28;20036;-62
2022/05/31 14:23:49;;;;;;;16.38;11.50;;;;;;;;;;4997319;28;20036;-60
2022/05/31 14:26:16;;;;;;;15.60;11.80;;;;;;;;;;4932026;29;20086;-62
2022/05/31 14:29:01;;;;;;;16.90;11.77;;;;;;;;;;4931382;29;20137;-62
2022/05/31 14:31:27;;;;;;;15.75;11.70;;;;;;;;;;4589041;28;10000383;-62
2022/05/31 14:34:00;;;;;;;17.15;11.90;;;;;;;;;;5004541;28;20035;-60
2022/05/31 14:36:33;;;;;;;16.10;12.30;;;;;;;;;;4939146;29;20545;-61
2022/05/31 14:39:01;;;;;;;16.98;12.25;;;;;;;;;;4927804;28;20032;-60
2022/05/31 14:41:34;;;;;;;18.27;12.07;;;;;;;;;;4928732;28;20042;-61
2022/05/31 14:44:01;;;;;;;16.55;12.05;;;;;;;;;;4928771;28;20287;-61
2022/05/31 14:46:30;;;;;;;16.50;11.80;;;;;;;;;;4928603;28;20062;-60
2022/05/31 14:49:23;;;;;;;16.25;11.30;;;;;;;;;;4928601;28;20028;-60
2022/05/31 14:51:52;;;;;;;17.75;11.98;;;;;;;;;;4928899;28;20027;-61
2022/05/31 14:54:37;;;;;;;16.67;11.70;;;;;;;;;;4929726;28;20020;-60
2022/05/31 14:57:04;;;;;;;18.67;11.80;;;;;;;;;;4930813;28;20020;-61
2022/05/31 14:59:31;;;;;;;15.85;11.20;;;;;;;;;;4930816;28;20039;-61
2022/05/31 15:01:57;;;;;;;16.73;11.17;;;;;;;;;;4593025;28;9999729;-59
2022/05/31 15:04:28;;;;;;;15.90;11.43;;;;;;;;;;4993263;28;20077;-59
2022/05/31 15:07:05;;;;;;;18.98;11.75;;;;;;;;;;4927930;29;20035;-61
2022/05/31 15:09:33;;;;;;;16.33;11.13;;;;;;;;;;4927492;29;20032;-58